Time;durP1;ratioP1;P1;durP2;ratioP2;P2;SDS_P1;SDS_P2;PMS_P1;PMS_P2;Temp;Humidity;BMP_temperature;BMP_pressure;BME280_temperature;BME280_humidity;BME280_pressure;Samples;Min_cycle;Max_cycle;Signal;HPM_P1;HPM_P2
2022/03/06 00:01:19;;;;;;;18.07;8.43;;;-2.20;99.90;;;;;;4971879;28;20767;-71
2022/03/06 00:03:44;;;;;;;18.77;9.00;;;-2.20;99.90;;;;;;4973873;28;20184;-71
2022/03/06 00:06:13;;;;;;;13.93;8.40;;;-2.20;99.90;;;;;;4972760;28;20177;-71
2022/03/06 00:08:39;;;;;;;14.83;7.80;;;-2.20;99.90;;;;;;4974308;28;20189;-71
2022/03/06 00:11:04;;;;;;;17.07;7.40;;;-2.10;99.90;;;;;;4973635;28;20454;-71
2022/03/06 00:13:30;;;;;;;18.57;8.93;;;-2.10;99.90;;;;;;4972981;28;20431;-71
2022/03/06 00:15:55;;;;;;;17.13;8.00;;;-2.00;99.90;;;;;;4973969;28;20184;-71
2022/03/06 00:18:21;;;;;;;15.90;8.43;;;-1.90;99.90;;;;;;4973619;28;20209;-71
2022/03/06 00:20:47;;;;;;;16.07;9.40;;;-1.90;99.90;;;;;;4954526;28;20185;-71
2022/03/06 00:23:12;;;;;;;13.53;8.33;;;-1.80;99.90;;;;;;4969833;28;20185;-71
2022/03/06 00:25:38;;;;;;;15.00;7.87;;;-1.80;99.90;;;;;;4972195;28;20543;-71
2022/03/06 00:28:04;;;;;;;15.87;6.93;;;-1.80;99.90;;;;;;4971317;28;20192;-71
2022/03/06 00:30:29;;;;;;;16.30;8.40;;;-1.80;99.90;;;;;;4971820;28;20188;-71
2022/03/06 00:32:55;;;;;;;13.27;7.30;;;-1.90;99.90;;;;;;4970982;28;20439;-71
2022/03/06 00:35:22;;;;;;;16.07;7.80;;;-1.90;99.90;;;;;;4972260;28;20185;-71
2022/03/06 00:37:47;;;;;;;12.00;8.07;;;-1.90;99.90;;;;;;4973720;28;20217;-71
2022/03/06 00:40:13;;;;;;;14.40;6.97;;;-2.00;99.90;;;;;;4971632;28;20395;-70
2022/03/06 00:42:38;;;;;;;13.20;7.50;;;-2.00;99.90;;;;;;4972144;28;20260;-71
2022/03/06 00:45:05;;;;;;;20.57;8.90;;;-2.00;99.90;;;;;;4970681;28;20205;-71
2022/03/06 00:47:30;;;;;;;16.77;7.87;;;-2.00;99.90;;;;;;4973581;28;20255;-72
2022/03/06 00:49:56;;;;;;;15.77;8.30;;;-2.10;99.90;;;;;;4972321;28;20509;-71
2022/03/06 00:52:21;;;;;;;20.87;9.63;;;-2.10;99.90;;;;;;4971346;28;20204;-72
2022/03/06 00:54:47;;;;;;;11.90;7.33;;;-2.20;99.90;;;;;;4972929;28;20184;-71
2022/03/06 00:57:13;;;;;;;17.03;8.27;;;-2.20;99.90;;;;;;4973090;28;20186;-70
2022/03/06 00:59:38;;;;;;;15.47;7.60;;;-2.20;99.90;;;;;;4972229;28;20181;-71
2022/03/06 05:31:20;;;;;;;15.67;8.53;;;-4.50;99.90;;;;;;5773212;23;20993;-71
2022/03/06 05:33:46;;;;;;;17.17;9.00;;;-4.50;99.90;;;;;;5000649;28;20414;-73
2022/03/06 05:36:11;;;;;;;19.33;8.93;;;-4.40;99.90;;;;;;4998243;28;20183;-70
2022/03/06 05:38:37;;;;;;;17.80;9.30;;;-4.40;99.90;;;;;;5009141;28;20252;-72
2022/03/06 05:41:03;;;;;;;28.33;10.20;;;-4.50;99.90;;;;;;5007368;28;20555;-72
2022/03/06 05:43:29;;;;;;;18.13;8.77;;;-4.50;99.90;;;;;;4990968;28;20274;-72
2022/03/06 05:45:54;;;;;;;23.33;10.97;;;-4.50;99.90;;;;;;4991879;28;20414;-69
2022/03/06 05:48:20;;;;;;;15.80;8.43;;;-4.50;99.90;;;;;;4991167;28;20183;-71
2022/03/06 05:50:46;;;;;;;22.37;10.40;;;-4.50;99.90;;;;;;4991689;28;20211;-72
2022/03/06 05:53:12;;;;;;;14.70;9.10;;;-4.40;99.90;;;;;;4990727;28;20393;-73
2022/03/06 05:55:38;;;;;;;19.73;8.70;;;-4.30;99.90;;;;;;4991608;28;20179;-70
2022/03/06 05:58:03;;;;;;;17.83;8.77;;;-4.30;99.90;;;;;;4991705;28;20460;-75
2022/03/06 06:00:30;;;;;;;18.50;9.10;;;-4.20;99.90;;;;;;4990591;28;20183;-75
2022/03/06 06:02:55;;;;;;;20.33;10.50;;;-4.10;99.90;;;;;;4989984;28;20254;-74
2022/03/06 06:05:22;;;;;;;17.03;8.77;;;-4.00;99.90;;;;;;4990965;28;20414;-75
2022/03/06 06:07:48;;;;;;;16.93;9.30;;;-4.00;99.90;;;;;;4991733;28;20176;-74
2022/03/06 06:10:14;;;;;;;20.37;9.47;;;-3.90;99.90;;;;;;4990624;28;20389;-75
2022/03/06 06:12:40;;;;;;;22.13;10.60;;;-3.80;99.90;;;;;;4991395;28;20473;-74
2022/03/06 06:15:07;;;;;;;23.43;10.27;;;-3.70;99.90;;;;;;4990733;28;20421;-76
2022/03/06 06:17:33;;;;;;;18.23;9.90;;;-3.60;99.90;;;;;;4991064;28;20179;-74
2022/03/06 06:20:00;;;;;;;14.20;8.47;;;-3.50;99.90;;;;;;4991209;28;20430;-74
2022/03/06 06:22:26;;;;;;;18.13;8.87;;;-3.40;99.90;;;;;;4990955;28;20413;-76
2022/03/06 06:24:51;;;;;;;18.27;9.37;;;-3.30;99.90;;;;;;4988895;28;20783;-75
2022/03/06 06:27:17;;;;;;;15.27;9.50;;;-3.20;99.90;;;;;;4990881;28;20436;-76
2022/03/06 06:29:42;;;;;;;15.53;8.70;;;-3.00;99.90;;;;;;4991109;28;20190;-75
2022/03/06 06:32:08;;;;;;;16.53;9.10;;;-2.90;99.90;;;;;;4990137;28;20223;-76
2022/03/06 06:34:33;;;;;;;15.63;8.20;;;-2.80;99.90;;;;;;4990462;28;20566;-76
2022/03/06 06:36:59;;;;;;;17.63;9.03;;;-2.70;99.90;;;;;;4990790;28;20215;-75
2022/03/06 06:39:28;;;;;;;17.80;10.30;;;-2.50;99.90;;;;;;4990376;28;20319;-74
2022/03/06 06:41:53;;;;;;;19.50;9.63;;;-2.50;99.90;;;;;;4990198;28;20198;-75
2022/03/06 06:44:19;;;;;;;16.67;9.03;;;-2.30;99.90;;;;;;4989808;28;20407;-74
2022/03/06 06:46:45;;;;;;;16.77;9.10;;;-2.20;99.90;;;;;;4990636;28;20181;-75
2022/03/06 06:49:10;;;;;;;17.03;9.70;;;-2.00;99.90;;;;;;4990936;28;20395;-75
2022/03/06 06:51:38;;;;;;;17.30;8.77;;;-1.80;99.90;;;;;;4990621;28;20212;-75
2022/03/06 06:54:04;;;;;;;16.17;8.80;;;-1.60;99.90;;;;;;4989894;28;20205;-76
2022/03/06 06:56:30;;;;;;;24.33;9.13;;;-1.20;99.90;;;;;;4990716;28;20808;-75
2022/03/06 06:58:55;;;;;;;16.97;8.27;;;-0.10;99.90;;;;;;4990958;28;20545;-74
2022/03/06 07:01:21;;;;;;;16.93;8.63;;;1.20;99.90;;;;;;4988703;28;20202;-75
2022/03/06 07:03:47;;;;;;;12.47;7.30;;;2.50;99.90;;;;;;4990099;28;20174;-75
2022/03/06 07:06:12;;;;;;;14.77;9.13;;;3.60;99.90;;;;;;4990712;28;20179;-76
2022/03/06 07:08:38;;;;;;;13.33;10.07;;;4.50;99.90;;;;;;4990349;28;20499;-75
2022/03/06 07:11:03;;;;;;;16.80;9.97;;;5.60;99.90;;;;;;4990482;28;20199;-75
2022/03/06 07:13:29;;;;;;;21.13;10.67;;;6.20;99.90;;;;;;4989555;28;20190;-76
2022/03/06 07:15:54;;;;;;;16.83;9.77;;;6.70;99.90;;;;;;4990648;28;20179;-72
2022/03/06 07:18:20;;;;;;;17.90;10.87;;;7.20;99.90;;;;;;4990200;28;20268;-75
2022/03/06 07:20:45;;;;;;;17.10;10.60;;;7.70;99.90;;;;;;4989793;28;20626;-74
2022/03/06 07:23:11;;;;;;;17.73;11.23;;;8.00;99.90;;;;;;4989703;28;20673;-75
2022/03/06 07:25:36;;;;;;;17.00;11.50;;;8.00;99.90;;;;;;4990660;28;20711;-75
2022/03/06 07:28:02;;;;;;;16.40;11.63;;;8.10;99.90;;;;;;4990436;28;20189;-76
2022/03/06 07:30:28;;;;;;;16.73;12.10;;;8.30;99.90;;;;;;4990117;28;20179;-76
2022/03/06 07:32:53;;;;;;;16.50;11.70;;;8.60;99.90;;;;;;4984926;28;20214;-75
2022/03/06 07:35:21;;;;;;;18.90;11.90;;;8.30;99.90;;;;;;4880676;28;20591;-78
2022/03/06 07:38:23;;;;;;;;;;;;;;;;;;;;;
2022/03/06 07:40:49;;;;;;;17.10;12.07;;;8.40;99.90;;;;;;4937005;28;20715;-78
2022/03/06 07:43:15;;;;;;;18.10;12.03;;;8.60;99.90;;;;;;4919497;28;21388;-73
2022/03/06 07:45:40;;;;;;;16.60;12.33;;;8.60;99.90;;;;;;4924052;28;20631;-73
2022/03/06 07:48:06;;;;;;;21.20;12.57;;;8.30;99.90;;;;;;4914006;28;20551;-74
2022/03/06 07:50:32;;;;;;;17.23;11.93;;;7.90;99.90;;;;;;4988969;28;20196;-75
2022/03/06 07:52:57;;;;;;;21.90;13.10;;;7.90;99.90;;;;;;4989332;28;20212;-74
2022/03/06 07:55:23;;;;;;;20.77;13.20;;;7.90;99.90;;;;;;4993359;28;20202;-75
2022/03/06 07:57:48;;;;;;;21.40;13.27;;;7.70;99.90;;;;;;4992624;28;20301;-75
2022/03/06 08:00:14;;;;;;;20.80;13.07;;;7.40;99.90;;;;;;4990283;28;20203;-74
2022/03/06 08:02:40;;;;;;;18.03;11.87;;;7.50;99.90;;;;;;4927611;28;20217;-75
2022/03/06 08:05:07;;;;;;;21.63;12.60;;;7.40;99.90;;;;;;4930908;28;20812;-73
2022/03/06 08:07:34;;;;;;;20.60;12.90;;;7.40;99.90;;;;;;4931562;28;20447;-73
2022/03/06 08:09:59;;;;;;;21.87;12.50;;;7.30;99.90;;;;;;4932387;28;20441;-74
2022/03/06 08:12:27;;;;;;;23.20;13.07;;;7.30;99.90;;;;;;4931904;28;20438;-75
2022/03/06 08:14:54;;;;;;;19.57;11.27;;;7.40;99.90;;;;;;4929561;28;20256;-74
2022/03/06 08:17:20;;;;;;;20.10;11.53;;;7.30;99.90;;;;;;4932306;28;20564;-74
2022/03/06 08:19:45;;;;;;;20.63;12.97;;;7.50;99.90;;;;;;4929435;28;20858;-75
2022/03/06 08:22:12;;;;;;;21.30;12.30;;;7.60;99.90;;;;;;4929353;28;20814;-74
2022/03/06 08:24:38;;;;;;;22.30;12.40;;;7.70;99.90;;;;;;4926891;28;20211;-74
2022/03/06 08:27:04;;;;;;;21.77;12.77;;;7.80;99.90;;;;;;4926929;28;20712;-73
2022/03/06 08:29:30;;;;;;;18.03;11.70;;;7.80;99.90;;;;;;4927447;28;20239;-74
2022/03/06 08:31:56;;;;;;;20.30;13.30;;;7.80;99.90;;;;;;4925359;28;20392;-73
2022/03/06 08:34:22;;;;;;;19.70;13.50;;;8.20;99.90;;;;;;4930398;28;20776;-76
2022/03/06 08:36:48;;;;;;;18.17;12.43;;;8.40;99.90;;;;;;4928658;28;20563;-74
2022/03/06 08:39:13;;;;;;;19.03;12.50;;;8.70;99.90;;;;;;4929133;28;20468;-74
2022/03/06 08:41:40;;;;;;;22.73;13.03;;;8.50;99.90;;;;;;4924915;28;20514;-74
2022/03/06 08:44:05;;;;;;;19.50;12.90;;;8.50;99.90;;;;;;4926082;28;20379;-74
2022/03/06 08:46:31;;;;;;;27.27;14.37;;;8.50;99.90;;;;;;4925939;28;20761;-74
2022/03/06 08:48:57;;;;;;;19.23;12.10;;;8.50;99.90;;;;;;4925288;28;20533;-74
2022/03/06 08:51:22;;;;;;;21.03;12.87;;;8.40;99.90;;;;;;4926725;28;20550;-75
2022/03/06 08:53:48;;;;;;;26.83;12.00;;;8.30;99.90;;;;;;4928003;28;20490;-74
2022/03/06 08:56:14;;;;;;;21.40;13.67;;;8.50;99.90;;;;;;4926982;28;20621;-73
2022/03/06 08:58:40;;;;;;;20.60;13.00;;;8.50;99.90;;;;;;4926087;28;20554;-73
2022/03/06 09:01:05;;;;;;;18.80;12.60;;;8.30;99.90;;;;;;4933219;28;20199;-74
2022/03/06 09:03:31;;;;;;;18.83;12.60;;;8.40;99.90;;;;;;4978082;28;20185;-75
2022/03/06 09:05:56;;;;;;;20.83;13.10;;;8.70;99.90;;;;;;5011557;28;20667;-75
2022/03/06 09:08:22;;;;;;;19.93;12.83;;;8.70;99.90;;;;;;4988327;28;20189;-75
2022/03/06 09:10:47;;;;;;;24.03;13.87;;;8.80;99.90;;;;;;4971890;28;20186;-75
2022/03/06 09:13:13;;;;;;;23.80;13.53;;;8.80;99.90;;;;;;4971686;28;20187;-75
2022/03/06 09:15:38;;;;;;;21.40;12.17;;;8.60;99.90;;;;;;4972216;28;20230;-75
2022/03/06 09:18:05;;;;;;;19.23;12.13;;;8.90;99.90;;;;;;4993694;28;20243;-74
2022/03/06 09:20:31;;;;;;;21.13;12.40;;;8.90;99.90;;;;;;5003604;28;20188;-75
2022/03/06 09:22:57;;;;;;;17.40;10.50;;;9.00;99.90;;;;;;5004185;28;20467;-74
2022/03/06 09:25:22;;;;;;;17.77;11.80;;;9.10;99.90;;;;;;5010090;28;20789;-74
2022/03/06 09:27:48;;;;;;;18.07;12.10;;;9.10;99.90;;;;;;4994002;28;20415;-75
2022/03/06 09:30:14;;;;;;;18.43;11.40;;;9.30;99.90;;;;;;5010051;28;20701;-75
2022/03/06 09:32:40;;;;;;;18.57;11.20;;;9.50;99.90;;;;;;5010374;28;20358;-75
2022/03/06 09:35:07;;;;;;;17.63;11.00;;;9.30;99.90;;;;;;5001224;28;20559;-75
2022/03/06 09:37:33;;;;;;;18.40;11.33;;;9.00;99.90;;;;;;4982008;28;20404;-75
2022/03/06 09:39:59;;;;;;;21.93;12.90;;;9.20;99.90;;;;;;4977750;28;20429;-75
2022/03/06 09:42:25;;;;;;;19.37;12.77;;;9.00;99.90;;;;;;4972348;28;20452;-75
2022/03/06 09:44:51;;;;;;;21.00;11.67;;;8.60;99.90;;;;;;4954491;28;20425;-74
2022/03/06 09:47:16;;;;;;;20.30;12.57;;;8.80;99.90;;;;;;4972297;28;20649;-74
2022/03/06 09:49:46;;;;;;;23.10;13.37;;;8.90;99.90;;;;;;4970959;28;20194;-73
2022/03/06 09:52:12;;;;;;;20.55;14.15;;;9.10;99.90;;;;;;4970367;28;20422;-74
2022/03/06 09:54:39;;;;;;;18.50;12.20;;;9.10;99.90;;;;;;4971698;28;20619;-74
2022/03/06 09:57:05;;;;;;;19.20;12.90;;;9.30;99.90;;;;;;4972086;28;20425;-74
2022/03/06 09:59:31;;;;;;;17.20;11.60;;;8.80;99.70;;;;;;4972394;28;20472;-74
2022/03/06 10:02:05;;;;;;;23.23;12.77;;;8.70;99.90;;;;;;4969900;28;20449;-74
2022/03/06 10:04:34;;;;;;;20.33;11.27;;;9.10;99.90;;;;;;4970276;28;20423;-74
2022/03/06 10:07:01;;;;;;;18.87;12.23;;;9.30;99.30;;;;;;4970652;28;20481;-74
2022/03/06 10:09:28;;;;;;;15.43;11.03;;;9.20;98.90;;;;;;4970404;28;20441;-74
2022/03/06 10:11:54;;;;;;;17.73;11.17;;;9.50;98.80;;;;;;4971782;28;20432;-74
2022/03/06 10:14:40;;;;;;;20.60;11.43;;;9.50;98.10;;;;;;4970464;28;20423;-74
2022/03/06 10:17:10;;;;;;;18.73;11.10;;;9.00;97.50;;;;;;4971494;28;20862;-74
2022/03/06 10:19:48;;;;;;;17.87;11.93;;;8.50;98.30;;;;;;4971698;28;20518;-74
2022/03/06 10:22:13;;;;;;;17.00;11.13;;;8.80;99.30;;;;;;4969856;28;20446;-74
2022/03/06 10:24:54;;;;;;;17.53;10.63;;;8.90;97.20;;;;;;4969954;28;20419;-74
2022/03/06 10:27:44;;;;;;;18.30;11.87;;;8.80;97.40;;;;;;4970323;28;20200;-74
2022/03/06 10:30:38;;;;;;;17.10;11.40;;;9.10;97.00;;;;;;4969216;28;20418;-73
2022/03/06 10:33:24;;;;;;;17.27;11.23;;;8.90;97.40;;;;;;4970865;28;20424;-74
2022/03/06 10:35:50;;;;;;;19.43;11.97;;;9.20;96.50;;;;;;4970258;28;20418;-74
2022/03/06 10:38:19;;;;;;;25.30;11.53;;;9.20;96.50;;;;;;4969239;28;20486;-74
2022/03/06 10:40:45;;;;;;;21.53;12.77;;;9.80;96.30;;;;;;4969490;28;20489;-74
2022/03/06 10:43:37;;;;;;;18.43;10.57;;;9.50;95.40;;;;;;4969336;28;20829;-74
2022/03/06 10:46:07;;;;;;;16.53;10.50;;;9.50;94.60;;;;;;4966685;28;20191;-74
2022/03/06 10:48:33;;;;;;;13.50;9.63;;;9.10;94.20;;;;;;4971318;28;20488;-74
2022/03/06 10:51:04;;;;;;;13.50;10.20;;;8.50;93.90;;;;;;4969623;28;20436;-74
2022/03/06 10:53:30;;;;;;;13.70;9.17;;;8.00;95.70;;;;;;4968577;28;20419;-74
2022/03/06 10:56:10;;;;;;;14.50;10.37;;;7.80;94.90;;;;;;4971587;28;20412;-74
2022/03/06 10:58:38;;;;;;;18.97;11.47;;;7.70;95.20;;;;;;4969839;28;20290;-74
2022/03/06 11:01:04;;;;;;;16.73;10.90;;;7.60;96.10;;;;;;4969040;28;20440;-74
2022/03/06 11:03:32;;;;;;;13.07;9.90;;;7.60;96.30;;;;;;4969171;28;20950;-74
2022/03/06 11:05:59;;;;;;;17.73;10.43;;;7.40;95.80;;;;;;4969892;28;20179;-74
2022/03/06 11:08:25;;;;;;;18.90;11.20;;;7.20;95.80;;;;;;4969747;28;20490;-74
2022/03/06 11:10:51;;;;;;;14.23;9.90;;;7.00;96.00;;;;;;4969791;28;20419;-74
2022/03/06 11:13:17;;;;;;;17.43;10.20;;;7.10;95.10;;;;;;4968905;28;20462;-74
2022/03/06 11:15:42;;;;;;;19.70;10.17;;;7.60;95.10;;;;;;4970778;28;20424;-73
2022/03/06 11:18:08;;;;;;;21.23;10.80;;;8.50;94.90;;;;;;4969696;28;20198;-74
2022/03/06 11:20:36;;;;;;;16.80;10.23;;;8.90;93.20;;;;;;4969552;28;20186;-74
2022/03/06 11:23:15;;;;;;;13.90;8.87;;;9.50;93.20;;;;;;4968795;28;20256;-74
2022/03/06 11:26:04;;;;;;;15.77;9.73;;;9.70;92.10;;;;;;4969629;28;20530;-74
2022/03/06 11:28:42;;;;;;;15.83;8.80;;;9.60;91.40;;;;;;4970914;28;20454;-74
2022/03/06 11:31:07;;;;;;;16.10;10.10;;;9.10;92.20;;;;;;4974614;28;20877;-74
2022/03/06 11:33:34;;;;;;;14.50;9.97;;;9.20;92.70;;;;;;4974241;28;20421;-74
2022/03/06 11:36:21;;;;;;;16.10;10.10;;;8.80;92.20;;;;;;4972915;28;20213;-74
2022/03/06 11:38:48;;;;;;;12.70;9.37;;;8.40;92.40;;;;;;4957441;28;20470;-74
2022/03/06 11:41:14;;;;;;;13.90;9.70;;;8.30;92.80;;;;;;4972979;28;20523;-74
2022/03/06 11:43:50;;;;;;;13.13;9.47;;;8.10;92.90;;;;;;4972663;28;20924;-74
2022/03/06 11:46:24;;;;;;;15.23;9.40;;;8.00;93.00;;;;;;4973452;28;20949;-74
2022/03/06 11:48:50;;;;;;;13.97;9.73;;;8.00;93.60;;;;;;4972951;28;20448;-74
2022/03/06 11:51:18;;;;;;;16.17;9.73;;;8.20;93.10;;;;;;4973023;28;21145;-74
2022/03/06 11:53:54;;;;;;;17.27;9.50;;;8.10;93.40;;;;;;4972528;28;20561;-74
2022/03/06 11:56:32;;;;;;;13.70;9.23;;;8.20;93.20;;;;;;4974681;28;20951;-74
2022/03/06 11:59:00;;;;;;;14.13;9.27;;;7.90;92.70;;;;;;4973270;28;20489;-74
2022/03/06 12:01:33;;;;;;;15.10;9.47;;;7.80;93.30;;;;;;4972651;28;20438;-74
2022/03/06 12:04:07;;;;;;;12.40;8.70;;;7.70;93.30;;;;;;4971696;28;20428;-74
2022/03/06 12:06:54;;;;;;;15.00;8.70;;;7.80;93.10;;;;;;4973093;28;20530;-74
2022/03/06 12:09:22;;;;;;;13.57;9.17;;;7.50;92.60;;;;;;4974115;28;20424;-74
2022/03/06 12:11:50;;;;;;;15.30;9.30;;;7.30;93.50;;;;;;4972316;28;20431;-74
2022/03/06 12:14:28;;;;;;;14.40;9.50;;;7.00;93.10;;;;;;4973307;28;20420;-73
2022/03/06 12:17:00;;;;;;;10.97;9.27;;;7.00;94.20;;;;;;4972438;28;20427;-73
2022/03/06 12:19:30;;;;;;;13.77;9.57;;;7.10;93.50;;;;;;4972399;28;20514;-74
2022/03/06 12:22:09;;;;;;;12.17;8.50;;;7.10;93.70;;;;;;4972061;28;20466;-74
2022/03/06 12:24:34;;;;;;;14.07;10.90;;;7.10;93.00;;;;;;4972158;28;20424;-74
2022/03/06 12:27:10;;;;;;;13.13;9.97;;;7.10;93.50;;;;;;4974199;28;20668;-74
2022/03/06 12:29:48;;;;;;;13.63;8.87;;;7.50;93.70;;;;;;4972441;28;20190;-74
2022/03/06 12:32:26;;;;;;;14.53;9.27;;;7.70;92.40;;;;;;4973308;28;21006;-74
2022/03/06 12:35:01;;;;;;;17.70;9.37;;;7.80;92.30;;;;;;4973577;28;20781;-73
2022/03/06 12:37:32;;;;;;;14.30;8.97;;;8.20;92.90;;;;;;4971814;28;20433;-74
2022/03/06 12:39:59;;;;;;;15.03;9.90;;;8.10;91.90;;;;;;4971040;28;20467;-73
2022/03/06 12:42:26;;;;;;;11.30;8.50;;;8.10;91.50;;;;;;4972896;28;20450;-74
2022/03/06 12:45:01;;;;;;;12.60;8.80;;;8.40;91.90;;;;;;4954485;28;20421;-74
2022/03/06 12:47:28;;;;;;;13.17;8.60;;;8.40;91.40;;;;;;4978674;28;20507;-75
2022/03/06 12:49:54;;;;;;;10.27;8.63;;;8.20;90.80;;;;;;4989744;28;20423;-74
2022/03/06 12:52:22;;;;;;;12.17;8.93;;;8.30;91.50;;;;;;4984185;28;20455;-75
2022/03/06 12:54:49;;;;;;;13.30;9.47;;;8.40;91.30;;;;;;4979315;28;20664;-75
2022/03/06 12:57:15;;;;;;;13.43;9.67;;;8.40;91.30;;;;;;4986941;28;20910;-74
2022/03/06 12:59:43;;;;;;;15.23;9.87;;;8.30;91.10;;;;;;4981284;28;20441;-75
2022/03/06 13:02:10;;;;;;;11.00;8.30;;;8.20;91.50;;;;;;5001518;28;20443;-75
2022/03/06 13:04:36;;;;;;;13.17;8.80;;;8.20;91.70;;;;;;5008115;28;20560;-75
2022/03/06 13:07:07;;;;;;;15.03;9.50;;;8.30;91.80;;;;;;5011653;28;20873;-74
2022/03/06 13:09:36;;;;;;;11.67;9.03;;;8.60;92.00;;;;;;5012027;28;20406;-75
2022/03/06 13:12:03;;;;;;;14.53;10.20;;;8.50;91.00;;;;;;5011677;28;20476;-75
2022/03/06 13:14:35;;;;;;;13.87;8.93;;;8.10;90.80;;;;;;4992492;28;20423;-74
2022/03/06 13:17:06;;;;;;;11.67;8.20;;;8.10;92.30;;;;;;4983741;28;20429;-74
2022/03/06 13:19:58;;;;;;;12.43;9.17;;;8.20;92.30;;;;;;4991933;28;20466;-74
2022/03/06 13:22:26;;;;;;;14.80;10.40;;;8.10;91.90;;;;;;4968963;28;20476;-74
2022/03/06 13:24:55;;;;;;;10.90;8.07;;;7.90;92.10;;;;;;4973536;28;20853;-74
2022/03/06 13:27:26;;;;;;;12.70;9.33;;;8.00;92.30;;;;;;4975956;28;20769;-75
2022/03/06 13:30:15;;;;;;;13.20;8.90;;;7.80;91.60;;;;;;4984612;28;20409;-74
2022/03/06 13:33:02;;;;;;;14.00;9.23;;;7.40;91.50;;;;;;4971536;28;20459;-74
2022/03/06 13:35:31;;;;;;;13.83;9.57;;;7.20;91.70;;;;;;4986534;28;20414;-73
2022/03/06 13:37:58;;;;;;;12.43;9.13;;;7.20;91.80;;;;;;4986489;28;20433;-75
2022/03/06 13:40:27;;;;;;;13.17;8.53;;;7.10;92.00;;;;;;4988187;28;20421;-74
2022/03/06 13:42:53;;;;;;;15.77;8.97;;;7.10;92.30;;;;;;4987145;28;20955;-74
2022/03/06 13:45:19;;;;;;;12.67;8.57;;;7.10;92.30;;;;;;4988105;28;20409;-74
2022/03/06 13:47:47;;;;;;;12.50;9.17;;;7.00;92.90;;;;;;4976906;28;20463;-74
2022/03/06 13:50:20;;;;;;;13.20;7.73;;;7.10;92.40;;;;;;4988481;28;20282;-74
2022/03/06 13:52:46;;;;;;;13.40;9.20;;;7.00;92.30;;;;;;4989147;28;20923;-74
2022/03/06 13:55:12;;;;;;;12.70;8.87;;;7.00;92.80;;;;;;4976250;28;20411;-74
2022/03/06 13:57:38;;;;;;;12.77;8.87;;;7.00;92.40;;;;;;4969925;28;20423;-74
2022/03/06 14:00:21;;;;;;;16.83;9.93;;;7.10;92.50;;;;;;4952833;28;20840;-74
2022/03/06 14:02:46;;;;;;;18.57;13.50;;;7.20;92.10;;;;;;4968762;28;20212;-73
2022/03/06 14:05:12;;;;;;;13.73;9.00;;;7.30;92.40;;;;;;4969871;28;20416;-74
2022/03/06 14:07:38;;;;;;;13.57;9.10;;;7.20;91.80;;;;;;4970320;28;20179;-74
2022/03/06 14:10:03;;;;;;;13.30;9.17;;;7.30;91.80;;;;;;4970200;28;20216;-74
2022/03/06 14:12:33;;;;;;;13.93;9.37;;;7.40;92.20;;;;;;4969631;28;20315;-74
2022/03/06 14:14:58;;;;;;;12.97;9.20;;;7.40;92.10;;;;;;4969962;28;20212;-74
2022/03/06 14:17:26;;;;;;;11.10;8.77;;;7.30;92.40;;;;;;4970158;28;20965;-74
2022/03/06 14:20:02;;;;;;;12.20;8.80;;;7.00;92.10;;;;;;4971538;28;20313;-74
2022/03/06 14:22:27;;;;;;;14.13;9.57;;;6.70;92.40;;;;;;4970349;28;20447;-74
2022/03/06 14:24:53;;;;;;;17.20;10.27;;;6.70;93.00;;;;;;4969564;28;20429;-74
2022/03/06 14:27:18;;;;;;;13.07;9.33;;;6.70;93.50;;;;;;4970180;28;20180;-74
2022/03/06 14:29:46;;;;;;;10.10;8.07;;;6.70;93.50;;;;;;4971478;28;20210;-74
2022/03/06 14:32:12;;;;;;;14.53;8.93;;;6.50;93.70;;;;;;4969844;28;20688;-74
2022/03/06 14:34:37;;;;;;;10.33;9.00;;;6.50;94.30;;;;;;4969773;28;20433;-74
2022/03/06 14:37:04;;;;;;;14.40;9.00;;;6.30;94.40;;;;;;4970905;28;20504;-74
2022/03/06 14:39:30;;;;;;;14.50;8.50;;;6.20;94.90;;;;;;4969959;28;20346;-74
2022/03/06 14:41:57;;;;;;;10.73;8.80;;;6.10;95.10;;;;;;4969820;28;20963;-74
2022/03/06 14:44:23;;;;;;;12.70;8.20;;;6.10;95.30;;;;;;4970786;28;20428;-74
2022/03/06 14:46:50;;;;;;;11.93;8.90;;;6.10;95.60;;;;;;4969611;28;20973;-74
2022/03/06 14:49:16;;;;;;;15.43;9.60;;;6.10;95.80;;;;;;4969746;28;20719;-74
2022/03/06 14:51:42;;;;;;;19.50;9.13;;;6.00;95.90;;;;;;4969889;28;20477;-75
2022/03/06 14:54:09;;;;;;;14.83;8.90;;;6.00;95.90;;;;;;4969478;28;20429;-74
2022/03/06 14:56:36;;;;;;;16.77;10.00;;;6.00;95.80;;;;;;4969375;28;20430;-74
2022/03/06 14:59:03;;;;;;;12.30;8.93;;;6.10;96.20;;;;;;4971255;28;20526;-74
2022/03/06 15:01:29;;;;;;;11.93;8.40;;;6.00;95.40;;;;;;4969643;28;20532;-74
2022/03/06 15:03:55;;;;;;;13.40;9.40;;;6.00;95.20;;;;;;4970802;28;20912;-74
2022/03/06 15:06:21;;;;;;;15.13;8.93;;;6.00;95.60;;;;;;4972039;28;20531;-75
2022/03/06 15:08:47;;;;;;;15.40;9.00;;;6.00;95.50;;;;;;4970093;28;20431;-74
2022/03/06 15:11:13;;;;;;;14.03;8.60;;;6.20;96.10;;;;;;4968802;28;20439;-74
2022/03/06 15:13:40;;;;;;;16.07;8.70;;;6.10;95.90;;;;;;4968892;28;20277;-74
2022/03/06 15:16:06;;;;;;;13.07;9.47;;;6.00;95.90;;;;;;4969818;28;20452;-74
2022/03/06 15:18:32;;;;;;;13.67;10.03;;;5.90;95.70;;;;;;4970870;28;21082;-75
2022/03/06 15:20:58;;;;;;;18.83;9.30;;;5.90;96.20;;;;;;4969732;28;20199;-75
2022/03/06 15:23:24;;;;;;;12.63;9.03;;;5.90;96.20;;;;;;4967915;28;20418;-74
2022/03/06 15:25:49;;;;;;;12.90;9.03;;;5.80;96.20;;;;;;4969770;28;20433;-74
2022/03/06 15:28:15;;;;;;;15.23;8.97;;;5.70;96.10;;;;;;4969213;28;20647;-74
2022/03/06 15:30:42;;;;;;;13.00;9.60;;;5.70;96.20;;;;;;4969831;28;20226;-74
2022/03/06 15:33:08;;;;;;;12.67;9.00;;;5.60;96.50;;;;;;4968575;28;20627;-74
2022/03/06 15:35:33;;;;;;;13.73;9.33;;;5.60;96.30;;;;;;4969585;28;20475;-74
2022/03/06 15:37:59;;;;;;;15.70;9.90;;;5.60;96.50;;;;;;4970692;28;20186;-74
2022/03/06 15:40:24;;;;;;;13.10;9.27;;;5.50;97.00;;;;;;4968853;28;20742;-74
2022/03/06 15:42:50;;;;;;;11.30;8.30;;;5.50;96.50;;;;;;4968969;28;20955;-74
2022/03/06 15:45:15;;;;;;;14.10;9.37;;;5.40;96.50;;;;;;4969137;28;20253;-74
2022/03/06 15:47:41;;;;;;;13.23;7.90;;;5.30;96.90;;;;;;4968919;28;20220;-75
2022/03/06 15:50:07;;;;;;;10.30;8.10;;;5.30;96.80;;;;;;4967504;28;20226;-75
2022/03/06 15:52:33;;;;;;;11.87;8.97;;;5.30;97.20;;;;;;4969400;28;20343;-74
2022/03/06 15:54:58;;;;;;;11.37;8.63;;;5.20;97.00;;;;;;4969333;28;20987;-74
2022/03/06 15:57:25;;;;;;;16.80;9.30;;;5.20;97.00;;;;;;4972395;28;20180;-74
2022/03/06 15:59:51;;;;;;;12.63;8.10;;;5.20;97.40;;;;;;4973209;28;20208;-75
2022/03/06 16:02:20;;;;;;;11.73;8.27;;;5.10;96.80;;;;;;4983121;28;20807;-74
2022/03/06 16:04:47;;;;;;;11.63;7.80;;;5.00;96.90;;;;;;4986308;28;20428;-74
2022/03/06 16:07:13;;;;;;;12.67;7.53;;;5.00;97.30;;;;;;4975991;28;20428;-74
2022/03/06 16:09:38;;;;;;;10.70;8.13;;;5.00;97.40;;;;;;4966497;28;20420;-75
2022/03/06 16:12:04;;;;;;;13.50;9.20;;;5.00;97.80;;;;;;4982857;28;20295;-75
2022/03/06 16:14:30;;;;;;;13.07;8.93;;;5.00;97.80;;;;;;4968463;28;20192;-74
2022/03/06 16:16:56;;;;;;;10.80;7.60;;;4.90;97.60;;;;;;4971643;28;20428;-74
2022/03/06 16:19:22;;;;;;;14.77;8.80;;;4.80;97.30;;;;;;4980374;28;20208;-74
2022/03/06 16:21:48;;;;;;;12.20;8.23;;;4.80;97.50;;;;;;4981325;28;20267;-75
2022/03/06 16:24:14;;;;;;;11.33;8.90;;;4.70;97.50;;;;;;4974751;28;20810;-75
2022/03/06 16:26:39;;;;;;;11.90;9.20;;;4.70;97.80;;;;;;4976952;28;20403;-75
2022/03/06 16:29:05;;;;;;;15.00;8.50;;;4.70;98.00;;;;;;4962235;28;20310;-75
2022/03/06 16:31:33;;;;;;;10.07;7.93;;;4.70;98.30;;;;;;4971609;28;20271;-74
2022/03/06 16:33:58;;;;;;;12.80;8.63;;;4.70;98.70;;;;;;4973335;28;20202;-75
2022/03/06 16:36:27;;;;;;;13.33;9.37;;;4.70;98.20;;;;;;4988125;28;20782;-75
2022/03/06 16:38:52;;;;;;;12.43;9.30;;;4.70;98.70;;;;;;4973683;28;20603;-73
2022/03/06 16:41:18;;;;;;;15.83;9.97;;;4.70;98.10;;;;;;4945468;28;20860;-74
2022/03/06 16:43:44;;;;;;;13.03;9.00;;;4.60;98.50;;;;;;4875338;28;20657;-79
2022/03/06 16:46:10;;;;;;;13.70;10.37;;;4.50;98.60;;;;;;4869112;28;20617;-76
2022/03/06 16:49:09;;;;;;;16.43;9.87;;;4.50;99.30;;;;;;4877077;28;20681;-81
2022/03/06 16:51:45;;;;;;;12.13;9.03;;;4.40;99.50;;;;;;4881143;28;20789;-77
2022/03/06 16:54:10;;;;;;;13.63;8.37;;;4.30;99.70;;;;;;4881335;28;21289;-78
2022/03/06 16:57:28;;;;;;;13.73;9.67;;;4.20;99.90;;;;;;4937977;28;21147;-79
2022/03/06 16:59:54;;;;;;;13.13;9.70;;;4.20;99.90;;;;;;4877418;28;20953;-74
2022/03/06 17:02:20;;;;;;;17.10;10.63;;;4.10;99.90;;;;;;4989973;28;20435;-75
2022/03/06 17:04:45;;;;;;;13.17;9.10;;;4.10;99.90;;;;;;4991162;28;20212;-75
2022/03/06 17:07:11;;;;;;;12.70;8.07;;;4.10;99.90;;;;;;4992486;28;20434;-75
2022/03/06 17:09:37;;;;;;;14.50;10.30;;;4.00;99.90;;;;;;4991828;28;20270;-74
2022/03/06 17:12:03;;;;;;;15.57;10.80;;;4.00;99.90;;;;;;4991440;28;20714;-75
2022/03/06 17:14:29;;;;;;;15.67;9.83;;;4.00;99.90;;;;;;4990836;28;20431;-76
2022/03/06 17:16:56;;;;;;;20.03;9.93;;;3.90;99.90;;;;;;4992100;28;20789;-75